Time;durP1;ratioP1;P1;durP2;ratioP2;P2;SDS_P1;SDS_P2;PMS_P1;PMS_P2;Temp;Humidity;BMP_temperature;BMP_pressure;BME280_temperature;BME280_humidity;BME280_pressure;Samples;Min_cycle;Max_cycle;Signal;HPM_P1;HPM_P2
2021/10/31 00:01:16;;;;;;;;;;;10.30;99.90;;;;;;5091070;28;19931;-75
2021/10/31 00:03:41;;;;;;;;;;;10.40;99.90;;;;;;5091895;28;19912;-75
2021/10/31 00:06:07;;;;;;;;;;;10.40;99.90;;;;;;5091554;28;19982;-74
2021/10/31 00:08:33;;;;;;;;;;;10.30;99.90;;;;;;5091182;28;20387;-75
2021/10/31 00:10:58;;;;;;;;;;;10.30;99.90;;;;;;5091256;28;19919;-75
2021/10/31 00:13:24;;;;;;;;;;;10.20;99.90;;;;;;5091737;28;19909;-75
2021/10/31 00:15:50;;;;;;;;;;;10.30;99.90;;;;;;5094132;28;19915;-75
2021/10/31 00:18:15;;;;;;;;;;;10.30;99.90;;;;;;5095434;28;19912;-74
2021/10/31 00:20:41;;;;;;;;;;;10.30;99.90;;;;;;5095181;28;19915;-75
2021/10/31 00:23:07;;;;;;;;;;;10.50;99.90;;;;;;5095644;28;19951;-75
2021/10/31 00:25:32;;;;;;;;;;;10.60;99.90;;;;;;5095315;28;19944;-75
2021/10/31 00:27:58;;;;;;;;;;;10.80;99.90;;;;;;5090062;28;19938;-75
2021/10/31 00:30:23;;;;;;;;;;;10.80;99.90;;;;;;5087761;28;19908;-74
2021/10/31 00:32:49;;;;;;;;;;;10.70;99.90;;;;;;5074117;28;19908;-75
2021/10/31 00:35:14;;;;;;;;;;;10.60;99.90;;;;;;5095153;28;20013;-76
2021/10/31 00:37:40;;;;;;;;;;;10.30;99.90;;;;;;5095131;28;19934;-75
2021/10/31 00:40:06;;;;;;;;;;;10.20;99.90;;;;;;5094926;28;19938;-75
2021/10/31 00:42:31;;;;;;;;;;;10.00;99.90;;;;;;5095268;28;19908;-75
2021/10/31 00:44:57;;;;;;;;;;;10.00;99.90;;;;;;5094954;28;19969;-75
2021/10/31 00:47:22;;;;;;;;;;;9.90;99.90;;;;;;5094744;28;20325;-75
2021/10/31 00:49:48;;;;;;;;;;;9.80;99.90;;;;;;5094719;28;19908;-75
2021/10/31 00:52:15;;;;;;;;;;;9.80;99.90;;;;;;5094623;28;20123;-75
2021/10/31 00:54:41;;;;;;;;;;;9.80;99.90;;;;;;5076565;28;19908;-75
2021/10/31 00:57:07;;;;;;;;;;;9.90;99.90;;;;;;5094700;28;19960;-75
2021/10/31 00:59:32;;;;;;;;;;;9.70;99.90;;;;;;5087780;28;19919;-75
2021/10/31 01:01:59;;;;;;;;;;;9.50;99.90;;;;;;5087661;28;19908;-75
2021/10/31 01:04:26;;;;;;;;;;;9.50;99.90;;;;;;5094525;28;20000;-74
2021/10/31 01:06:54;;;;;;;;;;;9.30;99.90;;;;;;5094504;28;20282;-75
2021/10/31 01:09:20;;;;;;;;;;;9.30;99.90;;;;;;5094484;28;19956;-75
2021/10/31 01:12:04;;;;;;;;;;;9.30;99.90;;;;;;5094224;28;19957;-75
2021/10/31 01:14:32;;;;;;;;;;;9.40;99.90;;;;;;5094638;28;20274;-75
2021/10/31 01:17:07;;;;;;;;;;;9.30;99.90;;;;;;5094107;28;19911;-75
2021/10/31 01:19:38;;;;;;;;;;;9.20;99.90;;;;;;5094149;28;20374;-75
2021/10/31 01:22:09;;;;;;;;;;;9.10;99.90;;;;;;5094373;28;19908;-75
2021/10/31 01:24:40;;;;;;;;;;;8.80;99.90;;;;;;5094378;28;19912;-75
2021/10/31 01:27:14;;;;;;;;;;;8.90;99.90;;;;;;5093161;28;19916;-75
2021/10/31 01:29:42;;;;;;;;;;;8.90;99.90;;;;;;5087388;28;20071;-75
2021/10/31 01:32:23;;;;;;;;;;;8.80;99.90;;;;;;5091892;28;19908;-75
2021/10/31 01:35:17;;;;;;;;;;;8.90;99.90;;;;;;5093655;28;19915;-75
2021/10/31 01:37:48;;;;;;;;;;;8.80;99.90;;;;;;5003271;28;19913;-75
2021/10/31 01:40:20;;;;;;;;;;;8.80;99.90;;;;;;5092826;28;19916;-75
2021/10/31 01:43:04;;;;;;;;;;;8.80;99.90;;;;;;5093369;28;19961;-76
2021/10/31 01:45:36;;;;;;;;;;;8.70;99.90;;;;;;5093104;28;19909;-74
2021/10/31 01:48:04;;;;;;;;;;;8.60;99.90;;;;;;5092296;28;19919;-73
2021/10/31 01:50:34;;;;;;;;;;;8.50;99.90;;;;;;5089413;28;19916;-75
2021/10/31 01:53:04;;;;;;;;;;;8.20;99.90;;;;;;5093029;28;19916;-75
2021/10/31 01:55:32;;;;;;;;;;;8.30;99.90;;;;;;5092974;28;20422;-75
2021/10/31 01:57:58;;;;;;;;;;;8.50;99.90;;;;;;5092986;28;19953;-75
2021/10/31 02:00:24;;;;;;;;;;;8.40;99.90;;;;;;5090850;28;19914;-75
2021/10/31 02:02:50;;;;;;;;;;;8.30;99.90;;;;;;5089299;28;19909;-75
2021/10/31 02:05:16;;;;;;;;;;;8.20;99.90;;;;;;5092563;28;19912;-75
2021/10/31 02:07:45;;;;;;;;;;;8.10;99.90;;;;;;5093721;28;19923;-75
2021/10/31 02:10:12;;;;;;;;;;;8.10;99.90;;;;;;5091422;28;19920;-75
2021/10/31 02:12:39;;;;;;;;;;;8.20;99.90;;;;;;5090359;28;20003;-75
2021/10/31 02:15:06;;;;;;;;;;;8.20;99.90;;;;;;5087157;28;20258;-75
2021/10/31 02:17:31;;;;;;;;;;;8.10;99.90;;;;;;5092433;28;19919;-75
2021/10/31 02:19:57;;;;;;;;;;;8.10;99.90;;;;;;5091968;28;19908;-75
2021/10/31 02:22:30;;;;;;;;;;;8.00;99.90;;;;;;5092452;28;19946;-75
2021/10/31 02:24:56;;;;;;;;;;;7.80;99.90;;;;;;5092665;28;19908;-75
2021/10/31 02:27:23;;;;;;;;;;;7.60;99.90;;;;;;5074069;28;20290;-75
2021/10/31 02:29:50;;;;;;;;;;;7.50;99.90;;;;;;5071261;28;20285;-74
2021/10/31 02:32:16;;;;;;;;;;;7.40;99.90;;;;;;5091867;28;19954;-75
2021/10/31 02:34:41;;;;;;;;;;;7.40;99.90;;;;;;5092400;28;19908;-75
2021/10/31 02:37:07;;;;;;;;;;;7.20;99.90;;;;;;5091892;28;20381;-74
2021/10/31 02:39:33;;;;;;;;;;;7.30;99.90;;;;;;5091945;28;19913;-75
2021/10/31 02:41:58;;;;;;;;;;;7.10;99.90;;;;;;5093355;28;20149;-75
2021/10/31 02:44:24;;;;;;;;;;;6.90;99.90;;;;;;5075550;28;20320;-75
2021/10/31 02:46:50;;;;;;;;;;;6.90;99.90;;;;;;5093581;28;19961;-75
2021/10/31 02:49:15;;;;;;;;;;;6.80;99.90;;;;;;5075192;28;19912;-74
2021/10/31 02:52:01;;;;;;;;;;;6.80;99.90;;;;;;5093866;28;19915;-75
2021/10/31 02:54:26;;;;;;;;;;;6.80;99.90;;;;;;5093232;28;19908;-76
2021/10/31 02:56:59;;;;;;;;;;;6.90;99.90;;;;;;5093543;28;19919;-76
2021/10/31 02:59:42;;;;;;;;;;;6.90;99.90;;;;;;5091168;28;19916;-76
2021/10/31 03:02:09;;;;;;;;;;;6.90;99.90;;;;;;5089314;28;20332;-75
2021/10/31 03:04:35;;;;;;;;;;;6.90;99.90;;;;;;5093084;28;20332;-76
2021/10/31 03:07:01;;;;;;;;;;;6.80;99.90;;;;;;5090912;28;19911;-76
2021/10/31 03:09:27;;;;;;;;;;;6.90;99.90;;;;;;5086827;28;19912;-76
2021/10/31 03:12:04;;;;;;;;;;;6.70;99.90;;;;;;5084952;28;19941;-76
2021/10/31 03:14:29;;;;;;;;;;;6.60;99.90;;;;;;5090454;28;19912;-74
2021/10/31 03:16:55;;;;;;;;;;;6.50;99.90;;;;;;5085472;28;20042;-74
2021/10/31 03:19:21;;;;;;;;;;;6.40;99.90;;;;;;5092211;28;19909;-74
2021/10/31 03:21:47;;;;;;;;;;;6.30;99.90;;;;;;5073624;28;19908;-74
2021/10/31 03:24:12;;;;;;;;;;;6.30;99.90;;;;;;5092116;28;20313;-76
2021/10/31 03:26:38;;;;;;;;;;;6.40;99.90;;;;;;5088406;28;19999;-77
2021/10/31 03:29:03;;;;;;;;;;;6.50;99.90;;;;;;5091145;28;20565;-76
2021/10/31 03:31:29;;;;;;;;;;;6.50;99.90;;;;;;5092154;28;19947;-74
2021/10/31 03:33:55;;;;;;;;;;;6.40;99.90;;;;;;5092073;28;20349;-74
2021/10/31 03:36:20;;;;;;;;;;;6.20;99.90;;;;;;5091672;28;19954;-74
2021/10/31 03:38:46;;;;;;;;;;;6.20;99.90;;;;;;5091480;28;19914;-74
2021/10/31 03:41:11;;;;;;;;;;;6.10;99.90;;;;;;5091483;28;19912;-74
2021/10/31 03:43:37;;;;;;;;;;;6.00;99.90;;;;;;5073833;28;20011;-73
2021/10/31 03:46:02;;;;;;;;;;;6.00;99.90;;;;;;5073992;28;19935;-78
2021/10/31 03:48:28;;;;;;;;;;;5.90;99.90;;;;;;5091852;28;19957;-77
2021/10/31 03:50:54;;;;;;;;;;;5.90;99.90;;;;;;5093889;28;20002;-74
2021/10/31 03:53:20;;;;;;;;;;;6.10;99.90;;;;;;5095512;28;19908;-74
2021/10/31 03:55:45;;;;;;;;;;;6.20;99.90;;;;;;5093684;28;19919;-74
2021/10/31 03:58:11;;;;;;;;;;;6.30;99.90;;;;;;5083515;28;19909;-74
2021/10/31 04:00:37;;;;;;;;;;;6.50;99.90;;;;;;5076600;28;20011;-75
2021/10/31 04:03:03;;;;;;;;;;;6.90;99.90;;;;;;5095008;28;20010;-75
2021/10/31 04:05:28;;;;;;;;;;;6.70;99.90;;;;;;5094702;28;20023;-75
2021/10/31 04:07:54;;;;;;;;;;;6.30;99.90;;;;;;5089436;28;19919;-75
2021/10/31 04:10:19;;;;;;;;;;;6.30;99.90;;;;;;5094250;28;19989;-73
2021/10/31 04:12:49;;;;;;;;;;;6.20;99.90;;;;;;5094934;28;19908;-75
2021/10/31 04:15:15;;;;;;;;;;;6.30;99.90;;;;;;5094871;28;19908;-74
2021/10/31 04:17:40;;;;;;;;;;;6.30;99.90;;;;;;5095171;28;19999;-75
2021/10/31 04:20:07;;;;;;;;;;;6.30;99.90;;;;;;5094348;28;19909;-74
2021/10/31 04:22:32;;;;;;;;;;;6.30;99.90;;;;;;5074621;28;19908;-75
2021/10/31 04:24:58;;;;;;;;;;;6.20;99.90;;;;;;5082715;28;19917;-73
2021/10/31 04:27:24;;;;;;;;;;;6.30;99.90;;;;;;5076933;28;19908;-74
2021/10/31 04:29:50;;;;;;;;;;;6.40;99.90;;;;;;5094410;28;20331;-74
2021/10/31 04:32:15;;;;;;;;;;;6.30;99.90;;;;;;5094809;28;19916;-75
2021/10/31 04:34:41;;;;;;;;;;;6.40;99.90;;;;;;5094811;28;20306;-74
2021/10/31 04:37:06;;;;;;;;;;;6.20;99.90;;;;;;5094598;28;20289;-74
2021/10/31 04:39:32;;;;;;;;;;;6.10;99.90;;;;;;5094388;28;19980;-75
2021/10/31 04:42:04;;;;;;;;;;;6.10;99.90;;;;;;5094201;28;19993;-74
2021/10/31 04:44:30;;;;;;;;;;;6.00;99.90;;;;;;5094539;28;20298;-74
2021/10/31 04:46:56;;;;;;;;;;;6.10;99.90;;;;;;5076275;28;19993;-75
2021/10/31 04:49:21;;;;;;;;;;;6.20;99.90;;;;;;5094189;28;19978;-74
2021/10/31 04:51:47;;;;;;;;;;;6.20;99.90;;;;;;5093648;28;20328;-74
2021/10/31 04:54:12;;;;;;;;;;;6.20;99.90;;;;;;5088630;28;20369;-74
2021/10/31 04:56:38;;;;;;;;;;;6.30;99.90;;;;;;5093356;28;19997;-75
2021/10/31 04:59:03;;;;;;;;;;;6.50;99.90;;;;;;5094051;28;19908;-75
2021/10/31 05:01:29;;;;;;;;;;;6.60;99.90;;;;;;5093578;28;19908;-75
2021/10/31 05:03:54;;;;;;;;;;;6.50;99.90;;;;;;5093575;28;20370;-74
2021/10/31 05:06:20;;;;;;;;;;;6.60;99.90;;;;;;5088668;28;20521;-75
2021/10/31 05:08:45;;;;;;;;;;;6.70;99.90;;;;;;5091534;28;19912;-74
2021/10/31 05:11:11;;;;;;;;;;;6.80;99.90;;;;;;5075475;28;20336;-74
2021/10/31 05:13:36;;;;;;;;;;;6.60;99.90;;;;;;5094214;28;19908;-75
2021/10/31 05:16:02;;;;;;;;;;;6.50;99.90;;;;;;5076443;28;20048;-74
2021/10/31 05:18:27;;;;;;;;;;;6.50;99.90;;;;;;5094859;28;19909;-75
2021/10/31 05:20:53;;;;;;;;;;;6.30;99.90;;;;;;5094257;28;20278;-74
2021/10/31 05:23:18;;;;;;;;;;;6.20;99.90;;;;;;5087460;28;19966;-75
2021/10/31 05:25:44;;;;;;;;;;;6.10;99.90;;;;;;5091332;28;19908;-75
2021/10/31 05:28:10;;;;;;;;;;;6.10;99.90;;;;;;5094279;28;20032;-75
2021/10/31 05:30:35;;;;;;;;;;;6.10;99.90;;;;;;5094267;28;19999;-74
2021/10/31 05:33:01;;;;;;;;;;;6.10;99.90;;;;;;5094532;28;19908;-75
2021/10/31 05:35:26;;;;;;;;;;;6.10;99.90;;;;;;5094483;28;19999;-75
2021/10/31 05:37:58;;;;;;;;;;;6.00;99.90;;;;;;5094451;28;19912;-75
2021/10/31 05:40:25;;;;;;;;;;;6.10;99.90;;;;;;5093969;28;19908;-75
2021/10/31 05:42:50;;;;;;;;;;;6.20;99.90;;;;;;5094198;28;19908;-75
2021/10/31 05:45:16;;;;;;;;;;;6.30;99.90;;;;;;5075715;28;19958;-74
2021/10/31 05:47:42;;;;;;;;;;;6.20;99.90;;;;;;5093955;28;19908;-76
2021/10/31 05:50:09;;;;;;;;;;;6.30;99.90;;;;;;5093180;28;19953;-74
2021/10/31 05:52:35;;;;;;;;;;;6.40;99.90;;;;;;5090403;28;20422;-75
2021/10/31 05:55:01;;;;;;;;;;;6.30;99.90;;;;;;5075644;28;19915;-75
2021/10/31 05:57:27;;;;;;;;;;;6.30;99.90;;;;;;5095161;28;20351;-75
2021/10/31 05:59:52;;;;;;;;;;;6.20;99.90;;;;;;5094334;28;19912;-75
2021/10/31 06:02:18;;;;;;;;;;;6.00;99.90;;;;;;5094317;28;20278;-74
2021/10/31 06:04:45;;;;;;;;;;;5.90;99.90;;;;;;5092497;28;19935;-75
2021/10/31 06:07:11;;;;;;;;;;;5.80;99.90;;;;;;5092630;28;19915;-75
2021/10/31 06:09:36;;;;;;;;;;;5.70;99.90;;;;;;5091415;28;19924;-74
2021/10/31 06:12:05;;;;;;;;;;;5.70;99.90;;;;;;5089979;28;20316;-75
2021/10/31 06:14:37;;;;;;;;;;;5.60;99.90;;;;;;5092360;28;20366;-75
2021/10/31 06:17:03;;;;;;;;;;;5.60;99.90;;;;;;5074243;28;19965;-75
2021/10/31 06:19:29;;;;;;;;;;;5.60;99.90;;;;;;5085871;28;19912;-74
2021/10/31 06:21:55;;;;;;;;;;;5.60;99.90;;;;;;5091524;28;20388;-75
2021/10/31 06:24:20;;;;;;;;;;;5.50;99.90;;;;;;5087451;28;19908;-75
2021/10/31 06:26:46;;;;;;;;;;;5.40;99.90;;;;;;5092060;28;19908;-75
2021/10/31 06:29:13;;;;;;;;;;;5.40;99.90;;;;;;5091592;28;20397;-75
2021/10/31 06:31:39;;;;;;;;;;;5.40;99.90;;;;;;5073798;28;20190;-75
2021/10/31 06:34:04;;;;;;;;;;;5.50;99.90;;;;;;5092687;28;19908;-75
2021/10/31 06:36:30;;;;;;;;;;;5.40;99.90;;;;;;5092656;28;19908;-75
2021/10/31 06:38:55;;;;;;;;;;;5.50;99.90;;;;;;5074067;28;19908;-75
2021/10/31 06:41:21;;;;;;;;;;;5.60;99.90;;;;;;5073639;28;20374;-74
2021/10/31 06:43:47;;;;;;;;;;;5.90;99.90;;;;;;5076903;28;20279;-74
2021/10/31 06:46:12;;;;;;;;;;;5.90;99.90;;;;;;5094623;28;20021;-75
2021/10/31 06:48:38;;;;;;;;;;;5.90;99.90;;;;;;5094567;28;20358;-75
2021/10/31 06:51:04;;;;;;;;;;;5.90;99.90;;;;;;5076130;28;19961;-75
2021/10/31 06:53:29;;;;;;;;;;;5.80;99.90;;;;;;5094303;28;19908;-74
2021/10/31 06:55:55;;;;;;;;;;;5.80;99.90;;;;;;5094794;28;19909;-75
2021/10/31 06:58:20;;;;;;;;;;;5.90;99.90;;;;;;5069456;28;20337;-75
2021/10/31 07:00:46;;;;;;;;;;;6.10;99.90;;;;;;5087002;28;19916;-74
2021/10/31 07:03:11;;;;;;;;;;;6.40;99.90;;;;;;5094091;28;19927;-75
2021/10/31 07:05:37;;;;;;;;;;;6.50;99.90;;;;;;5093681;28;19908;-77
2021/10/31 07:08:03;;;;;;;;;;;6.50;99.90;;;;;;5094147;28;20350;-75
2021/10/31 07:10:29;;;;;;;;;;;6.50;99.90;;;;;;5088327;28;19920;-75
2021/10/31 07:12:54;;;;;;;;;;;6.70;99.90;;;;;;5082619;28;20287;-75
2021/10/31 07:15:20;;;;;;;;;;;6.80;99.90;;;;;;5092953;28;20362;-73
2021/10/31 07:17:46;;;;;;;;;;;6.90;99.90;;;;;;5086085;28;19959;-75
2021/10/31 07:20:13;;;;;;;;;;;7.00;99.90;;;;;;5093390;28;20320;-75
2021/10/31 07:22:40;;;;;;;;;;;7.10;99.90;;;;;;5072169;28;19912;-75
2021/10/31 07:25:06;;;;;;;;;;;7.40;99.90;;;;;;5092815;28;19908;-76
2021/10/31 07:27:32;;;;;;;;;;;7.60;99.90;;;;;;5092834;28;19908;-76
2021/10/31 07:29:57;;;;;;;;;;;7.60;99.90;;;;;;5091002;28;20310;-76
2021/10/31 07:32:23;;;;;;;;;;;7.90;99.90;;;;;;5074895;28;19966;-76
2021/10/31 07:34:48;;;;;;;;;;;7.90;99.90;;;;;;5093565;28;19908;-75
2021/10/31 07:37:15;;;;;;;;;;;8.10;99.90;;;;;;5093796;28;19908;-76
2021/10/31 07:39:42;;;;;;;;;;;8.30;99.90;;;;;;5093369;28;20396;-76
2021/10/31 07:42:07;;;;;;;;;;;8.50;99.90;;;;;;5093802;28;19908;-76
2021/10/31 07:44:33;;;;;;;;;;;8.60;99.90;;;;;;5093502;28;19912;-76
2021/10/31 07:46:58;;;;;;;;;;;8.80;99.90;;;;;;5093587;28;19908;-76
2021/10/31 07:49:24;;;;;;;;;;;8.90;99.90;;;;;;5093626;28;19919;-76
2021/10/31 07:51:51;;;;;;;;;;;9.10;99.90;;;;;;5090958;28;19908;-76
2021/10/31 07:54:22;;;;;;;;;;;9.30;99.90;;;;;;5087065;28;19940;-76
2021/10/31 07:56:49;;;;;;;;;;;9.50;99.90;;;;;;5088081;28;20289;-76
2021/10/31 07:59:14;;;;;;;;;;;9.80;99.90;;;;;;5087936;28;19936;-76
2021/10/31 08:01:40;;;;;;;;;;;9.90;99.90;;;;;;5082895;28;19951;-76
2021/10/31 08:04:05;;;;;;;;;;;10.30;99.90;;;;;;5073745;28;19963;-76
2021/10/31 08:06:31;;;;;;;;;;;10.70;99.90;;;;;;5092637;28;19961;-76
2021/10/31 08:08:57;;;;;;;;;;;11.30;99.90;;;;;;5092219;28;19912;-76
2021/10/31 08:11:22;;;;;;;;;;;11.90;99.90;;;;;;5091493;28;19924;-76
2021/10/31 08:13:48;;;;;;;;;;;11.90;99.90;;;;;;5089161;28;19909;-76
2021/10/31 08:16:14;;;;;;;;;;;11.90;99.90;;;;;;5074833;28;20010;-73
2021/10/31 08:18:40;;;;;;;;;;;12.40;99.90;;;;;;5074624;28;19908;-74
2021/10/31 08:21:05;;;;;;;;;;;14.00;99.90;;;;;;5087961;28;19914;-75
2021/10/31 08:23:31;;;;;;;;;;;15.40;99.90;;;;;;5090273;28;19916;-74
2021/10/31 08:25:58;;;;;;;;;;;16.40;99.90;;;;;;5085757;28;19908;-75
2021/10/31 08:28:24;;;;;;;;;;;17.20;99.90;;;;;;5074161;28;19922;-74
2021/10/31 08:30:57;;;;;;;;;;;15.90;99.90;;;;;;5087715;28;20007;-75
2021/10/31 08:33:24;;;;;;;;;;;15.20;99.90;;;;;;5092625;28;19908;-74
2021/10/31 08:35:49;;;;;;;;;;;14.40;99.90;;;;;;5094065;28;19908;-75
2021/10/31 08:38:15;;;;;;;;;;;16.20;99.90;;;;;;5096761;28;19908;-76
2021/10/31 08:40:41;;;;;;;;;;;18.10;99.90;;;;;;5096082;28;19916;-75
2021/10/31 08:43:08;;;;;;;;;;;19.30;99.90;;;;;;5096071;28;19955;-75
2021/10/31 08:45:34;;;;;;;;;;;19.60;99.90;;;;;;5096844;28;19912;-75
2021/10/31 08:48:00;;;;;;;;;;;18.40;99.90;;;;;;5096446;28;19918;-75
2021/10/31 08:50:26;;;;;;;;;;;18.10;99.90;;;;;;5096105;28;20348;-75
2021/10/31 08:52:51;;;;;;;;;;;21.10;99.90;;;;;;5097037;28;19908;-75
2021/10/31 08:55:17;;;;;;;;;;;20.80;99.90;;;;;;5089673;28;19909;-74
2021/10/31 08:57:43;;;;;;;;;;;21.00;99.90;;;;;;5090067;28;19912;-74
2021/10/31 09:00:08;;;;;;;;;;;21.50;99.90;;;;;;5094900;28;19908;-76
2021/10/31 09:02:35;;;;;;;;;;;21.20;99.90;;;;;;5093255;28;19919;-76
2021/10/31 09:05:00;;;;;;;;;;;21.60;99.90;;;;;;5069239;28;19957;-76
2021/10/31 09:07:26;;;;;;;;;;;22.60;99.90;;;;;;5093896;28;19994;-76
2021/10/31 09:09:52;;;;;;;;;;;23.20;99.20;;;;;;5093689;28;19923;-76
2021/10/31 09:12:18;;;;;;;;;;;24.00;97.50;;;;;;5088995;28;20389;-76
2021/10/31 09:14:43;;;;;;;;;;;23.30;97.80;;;;;;5087927;28;19947;-76
2021/10/31 09:17:09;;;;;;;;;;;23.10;98.40;;;;;;5087380;28;19908;-76
2021/10/31 09:19:35;;;;;;;;;;;23.20;98.10;;;;;;5093873;28;19943;-76
2021/10/31 09:22:00;;;;;;;;;;;23.80;97.10;;;;;;5093673;28;20359;-77
2021/10/31 09:24:27;;;;;;;;;;;24.30;96.30;;;;;;5094023;28;19991;-76
2021/10/31 09:26:52;;;;;;;;;;;24.30;95.40;;;;;;5093717;28;19912;-76
2021/10/31 09:29:18;;;;;;;;;;;24.50;95.40;;;;;;5093658;28;19934;-76
2021/10/31 09:31:44;;;;;;;;;;;24.80;94.80;;;;;;5093372;28;19930;-76
2021/10/31 09:34:10;;;;;;;;;;;25.20;94.60;;;;;;5093752;28;19912;-77
2021/10/31 09:36:36;;;;;;;;;;;26.10;93.20;;;;;;5093644;28;19912;-76
2021/10/31 09:39:06;;;;;;;;;;;25.90;92.20;;;;;;5093943;28;20006;-77
2021/10/31 09:41:31;;;;;;;;;;;26.30;91.70;;;;;;5086010;28;19930;-77
2021/10/31 09:44:09;;;;;;;;;;;27.00;90.50;;;;;;5089808;28;19915;-77
2021/10/31 09:46:35;;;;;;;;;;;27.00;90.40;;;;;;5093505;28;19912;-77
2021/10/31 09:49:02;;;;;;;;;;;26.70;90.00;;;;;;5092635;28;20251;-76
2021/10/31 09:51:28;;;;;;;;;;;26.00;88.60;;;;;;5093264;28;19908;-76
2021/10/31 09:53:56;;;;;;;;;;;26.00;90.30;;;;;;5074800;28;19989;-77
2021/10/31 09:56:22;;;;;;;;;;;26.80;86.50;;;;;;5093227;28;20446;-76
2021/10/31 09:58:50;;;;;;;;;;;25.80;89.20;;;;;;5092884;28;19954;-77
2021/10/31 10:01:24;;;;;;;;;;;27.00;84.90;;;;;;5092345;28;19908;-77
2021/10/31 10:03:53;;;;;;;;;;;26.00;86.20;;;;;;5092365;28;19908;-76
2021/10/31 10:06:20;;;;;;;;;;;25.10;85.80;;;;;;5087157;28;19908;-76
2021/10/31 10:08:59;;;;;;;;;;;24.40;88.30;;;;;;5074057;28;20010;-77
2021/10/31 10:11:25;;;;;;;;;;;24.00;89.70;;;;;;5068949;28;19962;-76
2021/10/31 10:13:50;;;;;;;;;;;24.90;90.20;;;;;;5069431;28;19908;-76
2021/10/31 10:16:24;;;;;;;;;;;24.90;87.90;;;;;;5092730;28;19954;-77
2021/10/31 10:18:50;;;;;;;;;;;23.70;90.40;;;;;;5089159;28;19908;-77
2021/10/31 10:21:17;;;;;;;;;;;23.00;90.10;;;;;;5088049;28;19909;-75
2021/10/31 10:24:07;;;;;;;;;;;22.10;91.20;;;;;;5093236;28;20236;-76
2021/10/31 10:26:36;;;;;;;;;;;21.60;92.60;;;;;;5061409;28;19949;-75
2021/10/31 10:29:14;;;;;;;;;;;23.00;91.70;;;;;;5094143;28;19919;-76
2021/10/31 10:31:41;;;;;;;;;;;23.70;90.40;;;;;;5085420;28;19961;-76
2021/10/31 10:34:06;;;;;;;;;;;23.80;87.70;;;;;;5092787;28;19914;-76
2021/10/31 10:36:43;;;;;;;;;;;22.30;90.50;;;;;;5093400;28;19908;-76
2021/10/31 10:39:14;;;;;;;;;;;21.10;92.00;;;;;;5093498;28;19914;-75
2021/10/31 10:41:45;;;;;;;;;;;20.70;91.60;;;;;;5092498;28;19914;-74
2021/10/31 10:44:26;;;;;;;;;;;19.80;92.30;;;;;;5092247;28;19908;-75
2021/10/31 10:46:54;;;;;;;;;;;19.90;94.30;;;;;;5091238;28;20313;-74
2021/10/31 10:49:20;;;;;;;;;;;19.70;95.20;;;;;;5087064;28;20083;-75
2021/10/31 10:51:46;;;;;;;;;;;19.80;94.00;;;;;;5064985;28;20379;-74
2021/10/31 10:54:13;;;;;;;;;;;19.80;94.60;;;;;;5070656;28;20286;-74
2021/10/31 10:56:57;;;;;;;;;;;20.20;91.80;;;;;;5088044;28;19943;-74
2021/10/31 10:59:23;;;;;;;;;;;20.70;91.90;;;;;;5079494;28;20365;-75
2021/10/31 11:02:06;;;;;;;;;;;21.20;92.00;;;;;;5088424;28;19943;-75
2021/10/31 11:04:31;;;;;;;;;;;21.60;91.90;;;;;;5090849;28;19912;-75
2021/10/31 11:06:57;;;;;;;;;;;20.30;93.00;;;;;;5091532;28;20298;-74
2021/10/31 11:09:22;;;;;;;;;;;19.40;92.30;;;;;;5091247;28;20106;-75
2021/10/31 11:11:47;;;;;;;;;;;19.40;92.30;;;;;;5091354;28;19912;-75
2021/10/31 11:14:13;;;;;;;;;;;19.10;94.80;;;;;;5091477;28;19918;-74
2021/10/31 11:16:39;;;;;;;;;;;18.70;94.70;;;;;;5091357;28;20294;-75
2021/10/31 11:19:04;;;;;;;;;;;18.40;94.70;;;;;;5091453;28;20282;-74
2021/10/31 11:21:29;;;;;;;;;;;18.50;93.00;;;;;;5090398;28;20034;-75
2021/10/31 11:23:55;;;;;;;;;;;18.20;93.90;;;;;;5073032;28;19915;-75
2021/10/31 11:26:23;;;;;;;;;;;18.40;93.40;;;;;;5085977;28;19908;-74
2021/10/31 11:28:50;;;;;;;;;;;18.30;92.10;;;;;;5090926;28;19958;-74
2021/10/31 11:31:16;;;;;;;;;;;18.20;93.00;;;;;;5090941;28;19915;-74
2021/10/31 11:33:41;;;;;;;;;;;18.20;92.50;;;;;;5091263;28;19953;-74
2021/10/31 11:36:07;;;;;;;;;;;18.10;92.40;;;;;;5091117;28;20002;-74
2021/10/31 11:38:34;;;;;;;;;;;18.10;92.50;;;;;;5091193;28;20386;-74
2021/10/31 11:41:07;;;;;;;;;;;18.00;93.10;;;;;;5088637;28;20274;-74
2021/10/31 11:43:34;;;;;;;;;;;18.30;92.60;;;;;;5085505;28;20034;-74
2021/10/31 11:46:00;;;;;;;;;;;18.30;92.80;;;;;;5091118;28;19915;-74
2021/10/31 11:48:27;;;;;;;;;;;18.30;91.60;;;;;;5072667;28;20360;-74
2021/10/31 11:50:58;;;;;;;;;;;18.20;92.20;;;;;;5090541;28;20382;-74
2021/10/31 11:53:24;;;;;;;;;;;18.60;92.10;;;;;;5091042;28;19916;-74
2021/10/31 11:56:04;;;;;;;;;;;18.60;91.20;;;;;;5072866;28;19912;-74
2021/10/31 11:58:35;;;;;;;;;;;18.50;91.20;;;;;;5091134;28;20374;-75
2021/10/31 12:01:10;;;;;;;;;;;18.70;90.30;;;;;;5090256;28;19915;-75
2021/10/31 12:03:39;;;;;;;;;;;18.80;91.10;;;;;;5090949;28;19985;-74
2021/10/31 12:06:16;;;;;;;;;;;18.60;90.60;;;;;;5090973;28;19915;-74
2021/10/31 12:08:46;;;;;;;;;;;18.60;90.10;;;;;;5072601;28;20297;-74
2021/10/31 12:11:12;;;;;;;;;;;18.70;90.50;;;;;;5087004;28;19927;-74
2021/10/31 12:13:47;;;;;;;;;;;18.80;91.60;;;;;;5088200;28;19920;-74
2021/10/31 12:16:14;;;;;;;;;;;18.60;91.70;;;;;;5093127;28;19908;-74
2021/10/31 12:18:47;;;;;;;;;;;18.50;91.50;;;;;;5094782;28;19999;-74
2021/10/31 12:21:33;;;;;;;;;;;18.60;89.80;;;;;;5093868;28;19908;-74
2021/10/31 12:24:03;;;;;;;;;;;18.50;90.80;;;;;;5087482;28;19957;-74
2021/10/31 12:26:32;;;;;;;;;;;18.50;90.10;;;;;;5094171;28;19999;-74
2021/10/31 12:29:08;;;;;;;;;;;18.60;90.20;;;;;;5090283;28;20286;-74
2021/10/31 12:31:33;;;;;;;;;;;18.50;91.40;;;;;;5076017;28;20286;-74
2021/10/31 12:34:16;;;;;;;;;;;18.70;89.10;;;;;;5095253;28;19918;-74
2021/10/31 12:36:46;;;;;;;;;;;18.70;90.00;;;;;;5076920;28;19908;-74
2021/10/31 12:39:24;;;;;;;;;;;18.30;90.30;;;;;;5096973;28;19915;-74
2021/10/31 12:42:08;;;;;;;;;;;18.40;91.00;;;;;;5099161;28;19908;-74
2021/10/31 12:44:34;;;;;;;;;;;18.60;90.50;;;;;;5080738;28;20386;-74
2021/10/31 12:47:04;;;;;;;;;;;18.50;91.30;;;;;;5096174;28;19955;-74
2021/10/31 12:49:29;;;;;;;;;;;18.60;90.50;;;;;;5094058;28;20014;-74
2021/10/31 12:52:02;;;;;;;;;;;18.60;89.30;;;;;;5093765;28;19967;-74
2021/10/31 12:54:31;;;;;;;;;;;18.70;89.60;;;;;;5094052;28;19908;-74
2021/10/31 12:56:56;;;;;;;;;;;18.30;92.20;;;;;;5093996;28;19911;-74
2021/10/31 12:59:22;;;;;;;;;;;18.20;92.60;;;;;;5093697;28;20259;-74
2021/10/31 13:02:01;;;;;;;;;;;18.10;92.70;;;;;;5091118;28;20355;-74
2021/10/31 13:04:27;;;;;;;;;;;18.10;91.40;;;;;;5093353;28;19915;-74
2021/10/31 13:06:52;;;;;;;;;;;18.10;92.30;;;;;;5093831;28;20395;-74
2021/10/31 13:09:18;;;;;;;;;;;18.20;91.30;;;;;;5093714;28;19913;-74
2021/10/31 13:11:44;;;;;;;;;;;18.20;91.70;;;;;;5093131;28;20004;-73
2021/10/31 13:14:29;;;;;;;;;;;18.40;90.70;;;;;;5095248;28;19946;-74
2021/10/31 13:17:03;;;;;;;;;;;18.40;91.50;;;;;;5078699;28;19990;-74
2021/10/31 13:19:30;;;;;;;;;;;18.30;91.30;;;;;;5097519;28;19908;-74
2021/10/31 13:22:01;;;;;;;;;;;18.20;91.10;;;;;;5097380;28;20301;-74
2021/10/31 13:24:27;;;;;;;;;;;18.00;92.50;;;;;;5097505;28;19939;-74
2021/10/31 13:26:53;;;;;;;;;;;18.00;91.40;;;;;;5082411;28;19913;-74
2021/10/31 13:29:19;;;;;;;;;;;18.10;91.90;;;;;;5090355;28;19912;-74
2021/10/31 13:31:44;;;;;;;;;;;18.20;91.20;;;;;;5078264;28;20003;-74
2021/10/31 13:34:10;;;;;;;;;;;18.10;91.70;;;;;;5097858;28;19908;-74
2021/10/31 13:36:37;;;;;;;;;;;18.30;91.50;;;;;;5097145;28;19915;-74
2021/10/31 13:39:10;;;;;;;;;;;18.50;90.80;;;;;;5097907;28;20369;-74
2021/10/31 13:41:36;;;;;;;;;;;18.30;93.00;;;;;;5096680;28;19908;-74
2021/10/31 13:44:04;;;;;;;;;;;18.10;92.50;;;;;;5097022;28;19953;-74
2021/10/31 13:46:34;;;;;;;;;;;18.30;91.60;;;;;;5078681;28;19908;-75
2021/10/31 13:49:09;;;;;;;;;;;18.30;93.40;;;;;;5096984;28;20094;-74
2021/10/31 13:51:47;;;;;;;;;;;18.20;92.10;;;;;;5089309;28;19916;-74
2021/10/31 13:54:13;;;;;;;;;;;18.10;93.10;;;;;;5079004;28;20316;-74
2021/10/31 13:56:40;;;;;;;;;;;18.20;90.60;;;;;;5093616;28;19908;-74
2021/10/31 13:59:07;;;;;;;;;;;17.90;92.60;;;;;;5090008;28;19959;-74
2021/10/31 14:01:36;;;;;;;;;;;17.90;91.80;;;;;;5095732;28;19958;-74
2021/10/31 14:04:05;;;;;;;;;;;18.00;92.20;;;;;;5096153;28;20411;-74
2021/10/31 14:06:31;;;;;;;;;;;17.80;92.00;;;;;;5096226;28;19908;-74
2021/10/31 14:08:59;;;;;;;;;;;18.00;91.90;;;;;;5096473;28;19919;-74
2021/10/31 14:11:25;;;;;;;;;;;18.10;92.40;;;;;;5095839;28;19916;-75
2021/10/31 14:13:50;;;;;;;;;;;17.80;93.00;;;;;;5096677;28;19915;-75
2021/10/31 14:16:18;;;;;;;;;;;18.20;91.30;;;;;;5087772;28;20259;-75
2021/10/31 14:18:43;;;;;;;;;;;17.90;93.50;;;;;;5096239;28;19908;-74
2021/10/31 14:21:12;;;;;;;;;;;18.20;91.90;;;;;;5096170;28;19908;-74
2021/10/31 14:23:38;;;;;;;;;;;17.90;92.60;;;;;;5077503;28;20368;-75
2021/10/31 14:26:06;;;;;;;;;;;17.80;92.50;;;;;;5096354;28;19908;-74